sensor_id;sensor_type;location;lat;lon;timestamp;P1;durP1;ratioP1;P2;durP2;ratioP2
75135;SDS011;63707;52.212;9.540;2022-11-11T00:00:05;8.93;;;1.92;;
75135;SDS011;63707;52.212;9.540;2022-11-11T00:02:34;7.70;;;1.75;;
75135;SDS011;63707;52.212;9.540;2022-11-11T00:05:02;8.93;;;2.83;;
75135;SDS011;63707;52.212;9.540;2022-11-11T00:07:28;7.40;;;1.88;;
75135;SDS011;63707;52.212;9.540;2022-11-11T00:09:53;5.95;;;2.05;;
75135;SDS011;63707;52.212;9.540;2022-11-11T00:12:20;7.57;;;2.47;;
75135;SDS011;63707;52.212;9.540;2022-11-11T00:14:46;10.38;;;2.55;;
75135;SDS011;63707;52.212;9.540;2022-11-11T00:17:11;8.52;;;1.88;;
75135;SDS011;63707;52.212;9.540;2022-11-11T00:19:56;8.90;;;2.08;;
75135;SDS011;63707;52.212;9.540;2022-11-11T00:22:40;7.93;;;1.40;;
75135;SDS011;63707;52.212;9.540;2022-11-11T00:25:23;5.90;;;1.15;;
75135;SDS011;63707;52.212;9.540;2022-11-11T00:27:50;8.70;;;2.30;;
75135;SDS011;63707;52.212;9.540;2022-11-11T00:30:19;4.88;;;1.63;;
75135;SDS011;63707;52.212;9.540;2022-11-11T00:32:44;5.85;;;1.88;;
75135;SDS011;63707;52.212;9.540;2022-11-11T00:35:10;5.82;;;1.73;;
75135;SDS011;63707;52.212;9.540;2022-11-11T00:37:54;9.88;;;2.75;;
75135;SDS011;63707;52.212;9.540;2022-11-11T00:40:19;6.93;;;2.05;;
75135;SDS011;63707;52.212;9.540;2022-11-11T00:42:45;8.70;;;1.55;;
75135;SDS011;63707;52.212;9.540;2022-11-11T00:45:14;7.75;;;2.22;;
75135;SDS011;63707;52.212;9.540;2022-11-11T00:47:42;5.63;;;1.40;;
75135;SDS011;63707;52.212;9.540;2022-11-11T00:50:27;6.18;;;2.58;;
75135;SDS011;63707;52.212;9.540;2022-11-11T00:53:12;6.05;;;2.00;;
75135;SDS011;63707;52.212;9.540;2022-11-11T00:55:39;5.95;;;2.00;;
75135;SDS011;63707;52.212;9.540;2022-11-11T00:58:08;5.88;;;2.20;;
75135;SDS011;63707;52.212;9.540;2022-11-11T01:00:35;6.40;;;2.05;;
75135;SDS011;63707;52.212;9.540;2022-11-11T01:03:00;8.52;;;2.00;;
75135;SDS011;63707;52.212;9.540;2022-11-11T01:05:26;8.27;;;2.17;;
75135;SDS011;63707;52.212;9.540;2022-11-11T01:07:52;5.53;;;2.03;;
75135;SDS011;63707;52.212;9.540;2022-11-11T01:10:18;10.07;;;1.77;;
75135;SDS011;63707;52.212;9.540;2022-11-11T01:13:05;6.78;;;1.80;;
75135;SDS011;63707;52.212;9.540;2022-11-11T01:18:05;8.70;;;2.67;;
75135;SDS011;63707;52.212;9.540;2022-11-11T01:20:32;6.53;;;2.00;;
75135;SDS011;63707;52.212;9.540;2022-11-11T01:22:59;8.57;;;1.95;;
75135;SDS011;63707;52.212;9.540;2022-11-11T01:25:24;6.75;;;2.13;;
75135;SDS011;63707;52.212;9.540;2022-11-11T01:27:50;4.88;;;1.88;;
75135;SDS011;63707;52.212;9.540;2022-11-11T01:30:16;7.28;;;2.00;;
75135;SDS011;63707;52.212;9.540;2022-11-11T01:32:42;5.63;;;1.88;;
75135;SDS011;63707;52.212;9.540;2022-11-11T01:35:10;7.18;;;1.77;;
75135;SDS011;63707;52.212;9.540;2022-11-11T01:37:36;7.65;;;2.67;;
75135;SDS011;63707;52.212;9.540;2022-11-11T01:40:01;7.90;;;2.20;;
75135;SDS011;63707;52.212;9.540;2022-11-11T01:42:31;5.88;;;1.88;;
75135;SDS011;63707;52.212;9.540;2022-11-11T01:48:12;11.25;;;2.30;;
75135;SDS011;63707;52.212;9.540;2022-11-11T01:51:00;5.57;;;1.73;;
75135;SDS011;63707;52.212;9.540;2022-11-11T01:53:27;6.05;;;2.03;;
75135;SDS011;63707;52.212;9.540;2022-11-11T01:55:57;10.35;;;1.67;;
75135;SDS011;63707;52.212;9.540;2022-11-11T01:58:25;10.95;;;2.20;;
75135;SDS011;63707;52.212;9.540;2022-11-11T02:00:52;8.00;;;2.13;;
75135;SDS011;63707;52.212;9.540;2022-11-11T02:03:19;3.83;;;1.55;;
75135;SDS011;63707;52.212;9.540;2022-11-11T02:05:48;6.68;;;2.47;;
75135;SDS011;63707;52.212;9.540;2022-11-11T02:08:14;6.47;;;1.83;;
75135;SDS011;63707;52.212;9.540;2022-11-11T02:10:58;10.68;;;2.13;;
75135;SDS011;63707;52.212;9.540;2022-11-11T02:13:26;5.57;;;2.00;;
75135;SDS011;63707;52.212;9.540;2022-11-11T02:16:10;6.97;;;2.20;;
75135;SDS011;63707;52.212;9.540;2022-11-11T02:18:37;6.18;;;2.28;;
75135;SDS011;63707;52.212;9.540;2022-11-11T02:21:02;7.13;;;2.08;;
75135;SDS011;63707;52.212;9.540;2022-11-11T02:23:29;6.40;;;2.13;;
75135;SDS011;63707;52.212;9.540;2022-11-11T02:26:01;4.88;;;1.90;;
75135;SDS011;63707;52.212;9.540;2022-11-11T02:28:31;5.93;;;2.03;;
75135;SDS011;63707;52.212;9.540;2022-11-11T02:30:58;8.60;;;2.50;;
75135;SDS011;63707;52.212;9.540;2022-11-11T02:33:26;7.07;;;2.20;;
75135;SDS011;63707;52.212;9.540;2022-11-11T02:35:52;5.38;;;2.08;;
75135;SDS011;63707;52.212;9.540;2022-11-11T02:38:20;8.95;;;2.05;;
75135;SDS011;63707;52.212;9.540;2022-11-11T02:40:47;5.95;;;2.13;;
75135;SDS011;63707;52.212;9.540;2022-11-11T02:43:40;6.05;;;1.98;;
75135;SDS011;63707;52.212;9.540;2022-11-11T02:46:06;5.65;;;1.85;;
75135;SDS011;63707;52.212;9.540;2022-11-11T02:48:32;5.88;;;1.90;;
75135;SDS011;63707;52.212;9.540;2022-11-11T02:50:58;5.82;;;2.10;;
75135;SDS011;63707;52.212;9.540;2022-11-11T02:53:23;8.00;;;2.22;;
75135;SDS011;63707;52.212;9.540;2022-11-11T02:55:49;8.82;;;2.40;;
75135;SDS011;63707;52.212;9.540;2022-11-11T02:58:15;8.45;;;2.30;;
75135;SDS011;63707;52.212;9.540;2022-11-11T03:00:42;5.10;;;2.00;;
75135;SDS011;63707;52.212;9.540;2022-11-11T03:03:08;6.30;;;2.10;;
75135;SDS011;63707;52.212;9.540;2022-11-11T03:05:34;5.85;;;2.05;;
75135;SDS011;63707;52.212;9.540;2022-11-11T03:08:00;6.43;;;2.40;;
75135;SDS011;63707;52.212;9.540;2022-11-11T03:10:27;7.63;;;2.15;;
75135;SDS011;63707;52.212;9.540;2022-11-11T03:12:54;5.82;;;2.17;;
75135;SDS011;63707;52.212;9.540;2022-11-11T03:15:20;11.57;;;2.10;;
75135;SDS011;63707;52.212;9.540;2022-11-11T03:17:47;7.53;;;2.50;;
75135;SDS011;63707;52.212;9.540;2022-11-11T03:20:13;9.93;;;2.10;;
75135;SDS011;63707;52.212;9.540;2022-11-11T03:22:58;4.60;;;1.55;;
75135;SDS011;63707;52.212;9.540;2022-11-11T03:25:28;6.70;;;1.80;;
75135;SDS011;63707;52.212;9.540;2022-11-11T03:28:02;4.65;;;1.90;;
75135;SDS011;63707;52.212;9.540;2022-11-11T03:30:28;6.07;;;1.98;;
75135;SDS011;63707;52.212;9.540;2022-11-11T03:32:56;6.68;;;2.95;;
75135;SDS011;63707;52.212;9.540;2022-11-11T03:35:21;9.52;;;2.00;;
75135;SDS011;63707;52.212;9.540;2022-11-11T03:37:47;5.93;;;2.40;;
75135;SDS011;63707;52.212;9.540;2022-11-11T03:40:30;6.47;;;2.33;;
75135;SDS011;63707;52.212;9.540;2022-11-11T03:42:56;5.90;;;1.77;;
75135;SDS011;63707;52.212;9.540;2022-11-11T03:45:21;9.07;;;2.20;;
75135;SDS011;63707;52.212;9.540;2022-11-11T03:47:47;8.20;;;2.58;;
75135;SDS011;63707;52.212;9.540;2022-11-11T03:50:14;5.00;;;1.80;;
75135;SDS011;63707;52.212;9.540;2022-11-11T03:52:40;8.48;;;2.05;;
75135;SDS011;63707;52.212;9.540;2022-11-11T03:55:07;7.35;;;2.00;;
75135;SDS011;63707;52.212;9.540;2022-11-11T03:57:33;7.32;;;2.05;;
75135;SDS011;63707;52.212;9.540;2022-11-11T03:59:58;5.70;;;1.85;;
75135;SDS011;63707;52.212;9.540;2022-11-11T04:02:24;5.22;;;1.70;;
75135;SDS011;63707;52.212;9.540;2022-11-11T04:05:08;7.68;;;2.25;;
75135;SDS011;63707;52.212;9.540;2022-11-11T04:07:53;9.80;;;2.00;;
75135;SDS011;63707;52.212;9.540;2022-11-11T04:10:37;8.25;;;2.00;;
75135;SDS011;63707;52.212;9.540;2022-11-11T04:13:03;7.30;;;2.03;;
75135;SDS011;63707;52.212;9.540;2022-11-11T04:15:48;6.03;;;1.88;;
75135;SDS011;63707;52.212;9.540;2022-11-11T04:18:31;5.78;;;2.00;;
75135;SDS011;63707;52.212;9.540;2022-11-11T04:21:16;5.97;;;1.88;;
75135;SDS011;63707;52.212;9.540;2022-11-11T04:24:01;6.70;;;1.92;;
75135;SDS011;63707;52.212;9.540;2022-11-11T04:26:26;5.57;;;1.95;;
75135;SDS011;63707;52.212;9.540;2022-11-11T04:28:52;5.50;;;1.70;;
75135;SDS011;63707;52.212;9.540;2022-11-11T04:31:36;7.43;;;2.28;;
75135;SDS011;63707;52.212;9.540;2022-11-11T04:34:21;6.10;;;1.90;;
75135;SDS011;63707;52.212;9.540;2022-11-11T04:36:47;8.60;;;2.50;;
75135;SDS011;63707;52.212;9.540;2022-11-11T04:39:14;5.82;;;1.90;;
75135;SDS011;63707;52.212;9.540;2022-11-11T04:41:58;5.13;;;2.10;;
75135;SDS011;63707;52.212;9.540;2022-11-11T04:44:23;4.25;;;1.80;;
75135;SDS011;63707;52.212;9.540;2022-11-11T04:47:07;4.63;;;2.05;;
75135;SDS011;63707;52.212;9.540;2022-11-11T04:49:33;3.17;;;1.67;;
75135;SDS011;63707;52.212;9.540;2022-11-11T04:52:02;4.72;;;2.05;;
75135;SDS011;63707;52.212;9.540;2022-11-11T04:54:47;6.00;;;2.03;;
75135;SDS011;63707;52.212;9.540;2022-11-11T04:57:31;5.47;;;2.10;;
75135;SDS011;63707;52.212;9.540;2022-11-11T04:59:57;6.50;;;2.00;;
75135;SDS011;63707;52.212;9.540;2022-11-11T05:02:23;6.43;;;2.30;;
75135;SDS011;63707;52.212;9.540;2022-11-11T05:05:07;6.57;;;2.42;;
75135;SDS011;63707;52.212;9.540;2022-11-11T05:07:33;5.82;;;2.42;;
75135;SDS011;63707;52.212;9.540;2022-11-11T05:10:18;8.40;;;2.20;;
75135;SDS011;63707;52.212;9.540;2022-11-11T05:12:45;8.25;;;2.55;;
75135;SDS011;63707;52.212;9.540;2022-11-11T05:15:11;7.50;;;2.75;;
75135;SDS011;63707;52.212;9.540;2022-11-11T05:17:55;6.28;;;2.33;;
75135;SDS011;63707;52.212;9.540;2022-11-11T05:20:39;5.57;;;2.42;;
75135;SDS011;63707;52.212;9.540;2022-11-11T05:23:22;4.60;;;1.70;;
75135;SDS011;63707;52.212;9.540;2022-11-11T05:26:09;9.88;;;2.10;;
75135;SDS011;63707;52.212;9.540;2022-11-11T05:28:35;5.30;;;2.40;;
75135;SDS011;63707;52.212;9.540;2022-11-11T05:31:00;9.93;;;2.53;;
75135;SDS011;63707;52.212;9.540;2022-11-11T05:33:26;11.13;;;2.85;;
75135;SDS011;63707;52.212;9.540;2022-11-11T05:35:51;7.22;;;2.25;;
75135;SDS011;63707;52.212;9.540;2022-11-11T05:38:17;7.40;;;2.38;;
75135;SDS011;63707;52.212;9.540;2022-11-11T05:40:45;8.52;;;2.78;;
75135;SDS011;63707;52.212;9.540;2022-11-11T05:43:12;10.15;;;2.60;;
75135;SDS011;63707;52.212;9.540;2022-11-11T05:45:41;7.70;;;2.40;;
75135;SDS011;63707;52.212;9.540;2022-11-11T05:48:07;5.72;;;2.38;;
75135;SDS011;63707;52.212;9.540;2022-11-11T05:50:32;10.82;;;2.67;;
75135;SDS011;63707;52.212;9.540;2022-11-11T05:53:01;7.07;;;3.00;;
75135;SDS011;63707;52.212;9.540;2022-11-11T05:55:26;5.80;;;2.42;;
75135;SDS011;63707;52.212;9.540;2022-11-11T05:57:52;7.57;;;2.90;;
75135;SDS011;63707;52.212;9.540;2022-11-11T06:00:19;5.00;;;2.50;;
75135;SDS011;63707;52.212;9.540;2022-11-11T06:02:44;5.32;;;2.72;;
75135;SDS011;63707;52.212;9.540;2022-11-11T06:05:10;4.90;;;2.38;;
75135;SDS011;63707;52.212;9.540;2022-11-11T06:07:36;9.45;;;2.55;;
75135;SDS011;63707;52.212;9.540;2022-11-11T06:10:03;6.40;;;2.40;;
75135;SDS011;63707;52.212;9.540;2022-11-11T06:12:48;9.88;;;2.55;;
75135;SDS011;63707;52.212;9.540;2022-11-11T06:15:31;7.55;;;2.50;;
75135;SDS011;63707;52.212;9.540;2022-11-11T06:17:57;8.65;;;2.58;;
75135;SDS011;63707;52.212;9.540;2022-11-11T06:20:23;7.10;;;2.45;;
75135;SDS011;63707;52.212;9.540;2022-11-11T06:22:48;6.72;;;2.33;;
75135;SDS011;63707;52.212;9.540;2022-11-11T06:25:20;11.02;;;2.85;;
75135;SDS011;63707;52.212;9.540;2022-11-11T06:28:04;8.90;;;2.55;;
75135;SDS011;63707;52.212;9.540;2022-11-11T06:30:31;5.63;;;2.42;;
75135;SDS011;63707;52.212;9.540;2022-11-11T06:32:57;9.05;;;2.70;;
75135;SDS011;63707;52.212;9.540;2022-11-11T06:35:22;7.45;;;2.25;;
75135;SDS011;63707;52.212;9.540;2022-11-11T06:37:48;10.48;;;2.22;;
75135;SDS011;63707;52.212;9.540;2022-11-11T06:40:13;8.80;;;2.28;;
75135;SDS011;63707;52.212;9.540;2022-11-11T06:42:39;7.35;;;2.15;;
75135;SDS011;63707;52.212;9.540;2022-11-11T06:45:05;6.45;;;1.73;;
75135;SDS011;63707;52.212;9.540;2022-11-11T06:47:33;8.77;;;2.17;;
75135;SDS011;63707;52.212;9.540;2022-11-11T06:49:58;5.75;;;2.15;;
75135;SDS011;63707;52.212;9.540;2022-11-11T06:52:24;3.83;;;1.80;;
75135;SDS011;63707;52.212;9.540;2022-11-11T06:54:49;8.40;;;2.05;;
75135;SDS011;63707;52.212;9.540;2022-11-11T06:57:15;7.15;;;2.00;;
75135;SDS011;63707;52.212;9.540;2022-11-11T06:59:40;9.18;;;2.28;;
75135;SDS011;63707;52.212;9.540;2022-11-11T07:02:07;6.97;;;2.15;;
75135;SDS011;63707;52.212;9.540;2022-11-11T07:04:38;4.18;;;2.20;;
75135;SDS011;63707;52.212;9.540;2022-11-11T07:07:03;6.47;;;2.40;;
75135;SDS011;63707;52.212;9.540;2022-11-11T07:09:29;6.25;;;2.20;;
75135;SDS011;63707;52.212;9.540;2022-11-11T07:11:57;7.25;;;2.05;;
75135;SDS011;63707;52.212;9.540;2022-11-11T07:14:23;7.70;;;2.17;;
75135;SDS011;63707;52.212;9.540;2022-11-11T07:16:49;5.32;;;2.22;;
75135;SDS011;63707;52.212;9.540;2022-11-11T07:19:14;5.85;;;2.38;;
75135;SDS011;63707;52.212;9.540;2022-11-11T07:21:45;5.53;;;1.90;;
75135;SDS011;63707;52.212;9.540;2022-11-11T07:24:12;4.53;;;2.30;;
75135;SDS011;63707;52.212;9.540;2022-11-11T07:26:37;6.82;;;2.65;;
75135;SDS011;63707;52.212;9.540;2022-11-11T07:29:03;6.07;;;2.30;;
75135;SDS011;63707;52.212;9.540;2022-11-11T07:31:28;6.10;;;2.72;;
75135;SDS011;63707;52.212;9.540;2022-11-11T07:33:54;4.80;;;2.63;;
75135;SDS011;63707;52.212;9.540;2022-11-11T07:36:20;7.88;;;2.60;;
75135;SDS011;63707;52.212;9.540;2022-11-11T07:38:47;5.30;;;2.65;;
75135;SDS011;63707;52.212;9.540;2022-11-11T07:41:12;7.60;;;2.42;;
75135;SDS011;63707;52.212;9.540;2022-11-11T07:43:38;6.68;;;2.50;;
75135;SDS011;63707;52.212;9.540;2022-11-11T07:46:03;8.13;;;2.78;;
75135;SDS011;63707;52.212;9.540;2022-11-11T07:48:29;7.38;;;2.65;;
75135;SDS011;63707;52.212;9.540;2022-11-11T07:50:54;5.40;;;2.63;;
75135;SDS011;63707;52.212;9.540;2022-11-11T07:53:23;5.25;;;2.65;;
75135;SDS011;63707;52.212;9.540;2022-11-11T07:55:51;8.00;;;2.83;;
75135;SDS011;63707;52.212;9.540;2022-11-11T07:58:17;6.10;;;2.92;;
75135;SDS011;63707;52.212;9.540;2022-11-11T08:00:44;7.45;;;2.63;;
75135;SDS011;63707;52.212;9.540;2022-11-11T08:03:09;6.72;;;2.78;;
75135;SDS011;63707;52.212;9.540;2022-11-11T08:05:35;6.07;;;3.13;;
75135;SDS011;63707;52.212;9.540;2022-11-11T08:08:04;5.43;;;2.88;;
75135;SDS011;63707;52.212;9.540;2022-11-11T08:10:30;6.93;;;2.92;;
75135;SDS011;63707;52.212;9.540;2022-11-11T08:12:58;4.88;;;2.90;;
75135;SDS011;63707;52.212;9.540;2022-11-11T08:15:42;11.00;;;2.78;;
75135;SDS011;63707;52.212;9.540;2022-11-11T08:18:07;7.38;;;3.10;;
75135;SDS011;63707;52.212;9.540;2022-11-11T08:20:33;11.27;;;3.25;;
75135;SDS011;63707;52.212;9.540;2022-11-11T08:23:01;9.13;;;3.50;;
75135;SDS011;63707;52.212;9.540;2022-11-11T08:25:28;7.88;;;2.90;;
75135;SDS011;63707;52.212;9.540;2022-11-11T08:27:59;8.05;;;3.63;;
75135;SDS011;63707;52.212;9.540;2022-11-11T08:30:26;5.70;;;3.20;;
75135;SDS011;63707;52.212;9.540;2022-11-11T08:32:55;6.30;;;3.47;;
75135;SDS011;63707;52.212;9.540;2022-11-11T08:35:21;7.80;;;3.42;;
75135;SDS011;63707;52.212;9.540;2022-11-11T08:37:47;5.97;;;3.20;;
75135;SDS011;63707;52.212;9.540;2022-11-11T08:40:12;8.13;;;3.10;;
75135;SDS011;63707;52.212;9.540;2022-11-11T08:42:38;7.63;;;2.85;;
75135;SDS011;63707;52.212;9.540;2022-11-11T08:45:06;8.10;;;3.00;;
75135;SDS011;63707;52.212;9.540;2022-11-11T08:47:33;5.18;;;2.88;;
75135;SDS011;63707;52.212;9.540;2022-11-11T08:49:59;5.97;;;2.83;;
75135;SDS011;63707;52.212;9.540;2022-11-11T08:52:24;5.40;;;2.80;;
75135;SDS011;63707;52.212;9.540;2022-11-11T08:54:50;8.27;;;3.10;;
75135;SDS011;63707;52.212;9.540;2022-11-11T08:57:15;7.65;;;3.30;;
75135;SDS011;63707;52.212;9.540;2022-11-11T08:59:41;6.63;;;2.78;;
75135;SDS011;63707;52.212;9.540;2022-11-11T09:02:09;5.22;;;3.03;;
75135;SDS011;63707;52.212;9.540;2022-11-11T09:04:38;7.07;;;3.15;;
75135;SDS011;63707;52.212;9.540;2022-11-11T09:07:04;8.57;;;2.70;;
75135;SDS011;63707;52.212;9.540;2022-11-11T09:09:30;5.18;;;2.92;;
75135;SDS011;63707;52.212;9.540;2022-11-11T09:11:56;5.90;;;2.80;;
75135;SDS011;63707;52.212;9.540;2022-11-11T09:14:21;5.30;;;2.70;;
75135;SDS011;63707;52.212;9.540;2022-11-11T09:16:47;6.68;;;2.83;;
75135;SDS011;63707;52.212;9.540;2022-11-11T09:19:14;5.47;;;2.80;;
75135;SDS011;63707;52.212;9.540;2022-11-11T09:21:42;6.18;;;2.58;;
75135;SDS011;63707;52.212;9.540;2022-11-11T09:24:07;5.20;;;2.70;;
75135;SDS011;63707;52.212;9.540;2022-11-11T09:26:33;6.80;;;3.08;;
75135;SDS011;63707;52.212;9.540;2022-11-11T09:28:58;5.20;;;2.30;;
75135;SDS011;63707;52.212;9.540;2022-11-11T09:31:24;6.68;;;2.45;;
75135;SDS011;63707;52.212;9.540;2022-11-11T09:33:50;3.67;;;2.13;;
75135;SDS011;63707;52.212;9.540;2022-11-11T09:36:17;5.85;;;2.40;;
75135;SDS011;63707;52.212;9.540;2022-11-11T09:38:43;6.45;;;2.70;;
75135;SDS011;63707;52.212;9.540;2022-11-11T09:41:14;8.70;;;2.47;;
75135;SDS011;63707;52.212;9.540;2022-11-11T09:43:45;5.82;;;2.60;;
75135;SDS011;63707;52.212;9.540;2022-11-11T09:46:19;3.92;;;2.00;;
75135;SDS011;63707;52.212;9.540;2022-11-11T09:49:00;4.55;;;2.20;;
75135;SDS011;63707;52.212;9.540;2022-11-11T09:51:38;7.38;;;2.28;;
75135;SDS011;63707;52.212;9.540;2022-11-11T09:54:13;5.10;;;2.30;;
75135;SDS011;63707;52.212;9.540;2022-11-11T09:56:44;5.28;;;2.10;;
75135;SDS011;63707;52.212;9.540;2022-11-11T09:59:15;5.97;;;2.33;;
75135;SDS011;63707;52.212;9.540;2022-11-11T10:01:45;5.75;;;2.20;;
75135;SDS011;63707;52.212;9.540;2022-11-11T10:04:22;3.90;;;1.85;;
75135;SDS011;63707;52.212;9.540;2022-11-11T10:06:59;4.78;;;1.98;;
75135;SDS011;63707;52.212;9.540;2022-11-11T10:09:34;4.93;;;1.73;;
75135;SDS011;63707;52.212;9.540;2022-11-11T10:12:07;4.55;;;1.90;;
75135;SDS011;63707;52.212;9.540;2022-11-11T10:14:35;3.45;;;1.70;;
75135;SDS011;63707;52.212;9.540;2022-11-11T10:17:05;6.63;;;2.10;;
75135;SDS011;63707;52.212;9.540;2022-11-11T10:19:46;7.40;;;2.00;;
75135;SDS011;63707;52.212;9.540;2022-11-11T10:22:24;4.72;;;2.13;;
75135;SDS011;63707;52.212;9.540;2022-11-11T10:24:59;4.25;;;1.80;;
75135;SDS011;63707;52.212;9.540;2022-11-11T10:27:32;7.05;;;1.70;;
75135;SDS011;63707;52.212;9.540;2022-11-11T10:29:58;5.93;;;1.70;;
75135;SDS011;63707;52.212;9.540;2022-11-11T10:32:26;5.07;;;1.40;;
75135;SDS011;63707;52.212;9.540;2022-11-11T10:34:56;2.65;;;1.45;;
75135;SDS011;63707;52.212;9.540;2022-11-11T10:37:42;3.30;;;1.30;;
75135;SDS011;63707;52.212;9.540;2022-11-11T10:40:12;6.15;;;1.38;;
75135;SDS011;63707;52.212;9.540;2022-11-11T10:42:42;6.38;;;1.67;;
75135;SDS011;63707;52.212;9.540;2022-11-11T10:45:10;3.67;;;1.70;;
75135;SDS011;63707;52.212;9.540;2022-11-11T10:47:44;2.40;;;1.40;;
75135;SDS011;63707;52.212;9.540;2022-11-11T10:50:19;3.03;;;1.40;;
75135;SDS011;63707;52.212;9.540;2022-11-11T10:52:49;4.22;;;1.65;;
75135;SDS011;63707;52.212;9.540;2022-11-11T10:55:24;7.93;;;1.48;;
75135;SDS011;63707;52.212;9.540;2022-11-11T10:57:56;5.00;;;1.30;;
75135;SDS011;63707;52.212;9.540;2022-11-11T11:00:27;3.67;;;1.60;;
75135;SDS011;63707;52.212;9.540;2022-11-11T11:02:54;3.08;;;1.20;;
75135;SDS011;63707;52.212;9.540;2022-11-11T11:05:25;2.65;;;1.00;;
75135;SDS011;63707;52.212;9.540;2022-11-11T11:07:57;4.22;;;1.30;;
75135;SDS011;63707;52.212;9.540;2022-11-11T11:10:28;3.13;;;1.38;;
75135;SDS011;63707;52.212;9.540;2022-11-11T11:13:02;3.22;;;1.17;;
75135;SDS011;63707;52.212;9.540;2022-11-11T11:15:31;3.85;;;1.40;;
75135;SDS011;63707;52.212;9.540;2022-11-11T11:18:02;3.40;;;1.25;;
75135;SDS011;63707;52.212;9.540;2022-11-11T11:20:30;2.00;;;1.00;;
75135;SDS011;63707;52.212;9.540;2022-11-11T11:22:57;3.55;;;1.30;;
75135;SDS011;63707;52.212;9.540;2022-11-11T11:25:26;3.55;;;1.17;;
75135;SDS011;63707;52.212;9.540;2022-11-11T11:28:04;4.45;;;1.15;;
75135;SDS011;63707;52.212;9.540;2022-11-11T11:30:32;3.80;;;1.48;;
75135;SDS011;63707;52.212;9.540;2022-11-11T11:32:58;8.38;;;1.33;;
75135;SDS011;63707;52.212;9.540;2022-11-11T11:35:28;2.13;;;1.10;;
75135;SDS011;63707;52.212;9.540;2022-11-11T11:37:55;2.55;;;1.25;;
75135;SDS011;63707;52.212;9.540;2022-11-11T11:40:22;2.15;;;1.15;;
75135;SDS011;63707;52.212;9.540;2022-11-11T11:42:48;2.38;;;1.30;;
75135;SDS011;63707;52.212;9.540;2022-11-11T11:45:14;4.13;;;1.25;;
75135;SDS011;63707;52.212;9.540;2022-11-11T11:47:46;2.42;;;1.00;;
75135;SDS011;63707;52.212;9.540;2022-11-11T11:50:23;4.15;;;1.08;;
75135;SDS011;63707;52.212;9.540;2022-11-11T11:53:00;3.30;;;1.38;;
75135;SDS011;63707;52.212;9.540;2022-11-11T11:55:39;2.92;;;1.30;;
75135;SDS011;63707;52.212;9.540;2022-11-11T11:58:18;2.40;;;1.10;;
75135;SDS011;63707;52.212;9.540;2022-11-11T12:00:50;4.15;;;1.50;;
75135;SDS011;63707;52.212;9.540;2022-11-11T12:03:37;3.35;;;1.23;;
75135;SDS011;63707;52.212;9.540;2022-11-11T12:06:23;1.73;;;1.00;;
75135;SDS011;63707;52.212;9.540;2022-11-11T12:08:59;3.63;;;1.25;;
75135;SDS011;63707;52.212;9.540;2022-11-11T12:11:32;2.58;;;1.10;;
75135;SDS011;63707;52.212;9.540;2022-11-11T12:14:14;2.35;;;1.20;;
75135;SDS011;63707;52.212;9.540;2022-11-11T12:16:52;4.43;;;1.20;;
75135;SDS011;63707;52.212;9.540;2022-11-11T12:19:26;3.17;;;1.58;;
75135;SDS011;63707;52.212;9.540;2022-11-11T12:22:03;1.65;;;1.10;;
75135;SDS011;63707;52.212;9.540;2022-11-11T12:24:44;3.55;;;1.20;;
75135;SDS011;63707;52.212;9.540;2022-11-11T12:27:18;5.53;;;1.10;;
75135;SDS011;63707;52.212;9.540;2022-11-11T12:29:55;6.03;;;1.27;;
75135;SDS011;63707;52.212;9.540;2022-11-11T12:32:39;4.03;;;1.25;;
75135;SDS011;63707;52.212;9.540;2022-11-11T12:35:30;4.13;;;1.17;;
75135;SDS011;63707;52.212;9.540;2022-11-11T12:38:11;2.00;;;1.00;;
75135;SDS011;63707;52.212;9.540;2022-11-11T12:40:52;1.58;;;0.98;;
75135;SDS011;63707;52.212;9.540;2022-11-11T12:43:31;1.67;;;0.98;;
75135;SDS011;63707;52.212;9.540;2022-11-11T12:46:05;3.70;;;1.30;;
75135;SDS011;63707;52.212;9.540;2022-11-11T12:48:45;2.38;;;0.93;;
75135;SDS011;63707;52.212;9.540;2022-11-11T12:51:20;3.65;;;1.25;;
75135;SDS011;63707;52.212;9.540;2022-11-11T12:53:57;5.57;;;1.35;;
75135;SDS011;63707;52.212;9.540;2022-11-11T12:56:35;2.28;;;1.23;;
75135;SDS011;63707;52.212;9.540;2022-11-11T12:59:08;2.40;;;1.20;;
75135;SDS011;63707;52.212;9.540;2022-11-11T13:01:46;2.47;;;1.30;;
75135;SDS011;63707;52.212;9.540;2022-11-11T13:04:21;4.25;;;1.00;;
75135;SDS011;63707;52.212;9.540;2022-11-11T13:07:02;3.78;;;1.30;;
75135;SDS011;63707;52.212;9.540;2022-11-11T13:10:12;4.93;;;1.75;;
75135;SDS011;63707;52.212;9.540;2022-11-11T13:12:50;3.33;;;1.30;;
75135;SDS011;63707;52.212;9.540;2022-11-11T13:15:27;3.25;;;1.30;;
75135;SDS011;63707;52.212;9.540;2022-11-11T13:17:53;4.13;;;1.80;;
75135;SDS011;63707;52.212;9.540;2022-11-11T13:20:20;2.83;;;1.42;;
75135;SDS011;63707;52.212;9.540;2022-11-11T13:22:58;2.83;;;1.40;;
75135;SDS011;63707;52.212;9.540;2022-11-11T13:25:24;4.22;;;1.60;;
75135;SDS011;63707;52.212;9.540;2022-11-11T13:27:57;3.55;;;1.58;;
75135;SDS011;63707;52.212;9.540;2022-11-11T13:30:32;2.45;;;1.30;;
75135;SDS011;63707;52.212;9.540;2022-11-11T13:33:09;2.95;;;1.10;;
75135;SDS011;63707;52.212;9.540;2022-11-11T13:35:38;2.42;;;1.33;;
75135;SDS011;63707;52.212;9.540;2022-11-11T13:38:09;3.63;;;1.60;;
75135;SDS011;63707;52.212;9.540;2022-11-11T13:40:47;4.47;;;1.67;;
75135;SDS011;63707;52.212;9.540;2022-11-11T13:43:18;3.97;;;1.70;;
75135;SDS011;63707;52.212;9.540;2022-11-11T13:45:51;3.78;;;1.50;;
75135;SDS011;63707;52.212;9.540;2022-11-11T13:48:19;3.13;;;1.58;;
75135;SDS011;63707;52.212;9.540;2022-11-11T13:50:50;4.57;;;1.95;;
75135;SDS011;63707;52.212;9.540;2022-11-11T13:53:23;5.28;;;2.30;;
75135;SDS011;63707;52.212;9.540;2022-11-11T13:55:51;5.97;;;2.15;;
75135;SDS011;63707;52.212;9.540;2022-11-11T13:58:27;5.40;;;1.50;;
75135;SDS011;63707;52.212;9.540;2022-11-11T14:00:57;3.88;;;1.67;;
75135;SDS011;63707;52.212;9.540;2022-11-11T14:03:28;4.25;;;1.42;;
75135;SDS011;63707;52.212;9.540;2022-11-11T14:08:54;2.00;;;1.38;;
75135;SDS011;63707;52.212;9.540;2022-11-11T14:11:28;2.85;;;1.60;;
75135;SDS011;63707;52.212;9.540;2022-11-11T14:13:57;4.00;;;2.00;;
75135;SDS011;63707;52.212;9.540;2022-11-11T14:19:29;3.47;;;1.80;;
75135;SDS011;63707;52.212;9.540;2022-11-11T14:21:57;4.00;;;1.77;;
75135;SDS011;63707;52.212;9.540;2022-11-11T14:24:25;3.78;;;1.80;;
75135;SDS011;63707;52.212;9.540;2022-11-11T14:27:00;3.40;;;1.85;;
75135;SDS011;63707;52.212;9.540;2022-11-11T14:29:30;4.40;;;2.25;;
75135;SDS011;63707;52.212;9.540;2022-11-11T14:32:05;6.50;;;2.38;;
75135;SDS011;63707;52.212;9.540;2022-11-11T14:35:00;6.32;;;2.20;;
75135;SDS011;63707;52.212;9.540;2022-11-11T14:37:45;7.22;;;2.55;;
75135;SDS011;63707;52.212;9.540;2022-11-11T14:40:25;3.38;;;2.00;;
75135;SDS011;63707;52.212;9.540;2022-11-11T14:42:52;3.53;;;1.58;;
75135;SDS011;63707;52.212;9.540;2022-11-11T14:51:20;4.45;;;1.90;;
75135;SDS011;63707;52.212;9.540;2022-11-11T14:54:06;2.83;;;1.85;;
75135;SDS011;63707;52.212;9.540;2022-11-11T14:56:43;5.82;;;2.25;;
75135;SDS011;63707;52.212;9.540;2022-11-11T14:59:09;3.72;;;2.13;;
75135;SDS011;63707;52.212;9.540;2022-11-11T15:01:38;5.38;;;2.10;;
75135;SDS011;63707;52.212;9.540;2022-11-11T15:04:04;6.10;;;2.15;;
75135;SDS011;63707;52.212;9.540;2022-11-11T15:06:33;6.18;;;2.80;;
75135;SDS011;63707;52.212;9.540;2022-11-11T15:09:03;5.60;;;3.05;;
75135;SDS011;63707;52.212;9.540;2022-11-11T15:11:40;6.32;;;3.10;;
75135;SDS011;63707;52.212;9.540;2022-11-11T15:14:15;8.90;;;3.33;;
75135;SDS011;63707;52.212;9.540;2022-11-11T15:16:52;4.57;;;2.63;;
75135;SDS011;63707;52.212;9.540;2022-11-11T15:19:30;5.75;;;2.60;;
75135;SDS011;63707;52.212;9.540;2022-11-11T15:22:09;17.85;;;4.15;;
75135;SDS011;63707;52.212;9.540;2022-11-11T15:24:49;4.70;;;2.13;;
75135;SDS011;63707;52.212;9.540;2022-11-11T15:27:26;9.27;;;3.17;;